Time;durP1;ratioP1;P1;durP2;ratioP2;P2;SDS_P1;SDS_P2;PMS_P1;PMS_P2;Temp;Humidity;BMP_temperature;BMP_pressure;BME280_temperature;BME280_humidity;BME280_pressure;Samples;Min_cycle;Max_cycle;Signal;HPM_P1;HPM_P2
2023/04/26 00:03:24;;;;;;;;;;;4.60;94.70;;;;;;8385478;28;20406;-74
2023/04/26 00:07:27;;;;;;;;;;;4.60;95.00;;;;;;8387167;28;19931;-75
2023/04/26 00:11:29;;;;;;;;;;;4.50;95.20;;;;;;8390199;28;19924;-74
2023/04/26 00:15:31;;;;;;;;;;;4.50;94.80;;;;;;8400036;28;19943;-74
2023/04/26 00:19:32;;;;;;;;;;;4.40;94.70;;;;;;8395781;28;19933;-74
2023/04/26 00:23:35;;;;;;;;;;;4.30;94.40;;;;;;8384796;28;19930;-74
2023/04/26 00:27:37;;;;;;;;;;;4.20;94.50;;;;;;8375403;28;19933;-74
2023/04/26 00:31:38;;;;;;;;;;;4.20;94.70;;;;;;8393808;28;20370;-73
2023/04/26 00:35:40;;;;;;;;;;;4.10;94.70;;;;;;8376991;28;19977;-74
2023/04/26 00:39:41;;;;;;;;;;;4.10;94.70;;;;;;8393691;28;19931;-74
2023/04/26 00:43:44;;;;;;;;;;;4.00;94.60;;;;;;8394157;28;19924;-74
2023/04/26 00:47:45;;;;;;;;;;;4.00;95.10;;;;;;8396508;28;19929;-74
2023/04/26 00:51:48;;;;;;;;;;;4.00;95.10;;;;;;8401100;28;19935;-75
2023/04/26 00:55:50;;;;;;;;;;;3.90;95.20;;;;;;8390725;28;19929;-74
2023/04/26 00:59:52;;;;;;;;;;;3.80;94.70;;;;;;8406044;28;20437;-74
2023/04/26 01:03:54;;;;;;;;;;;3.80;94.80;;;;;;8394572;28;19925;-74
2023/04/26 01:07:56;;;;;;;;;;;3.80;94.80;;;;;;8370663;28;19928;-74
2023/04/26 01:11:59;;;;;;;;;;;3.70;94.80;;;;;;8394246;28;19924;-74
2023/04/26 01:16:01;;;;;;;;;;;3.70;94.40;;;;;;8387267;28;19925;-74
2023/04/26 01:20:03;;;;;;;;;;;3.70;94.30;;;;;;8384773;28;19939;-74
2023/04/26 01:24:05;;;;;;;;;;;3.60;94.50;;;;;;8399787;28;20428;-75
2023/04/26 01:28:07;;;;;;;;;;;3.50;94.30;;;;;;8396217;28;19940;-74
2023/04/26 01:32:08;;;;;;;;;;;3.50;94.30;;;;;;8397789;28;19980;-74
2023/04/26 01:36:10;;;;;;;;;;;3.50;94.00;;;;;;8403656;28;19932;-75
2023/04/26 01:40:12;;;;;;;;;;;3.40;93.80;;;;;;8397694;28;19925;-73
2023/04/26 01:44:14;;;;;;;;;;;3.30;93.90;;;;;;8394642;28;19924;-74
2023/04/26 01:48:16;;;;;;;;;;;3.20;94.20;;;;;;8391063;28;19929;-74
2023/04/26 01:52:17;;;;;;;;;;;3.10;94.20;;;;;;8375162;28;19990;-74
2023/04/26 01:56:19;;;;;;;;;;;3.10;94.20;;;;;;8394147;28;19947;-74
2023/04/26 02:05:30;;;;;;;;;;;3.00;94.00;;;;;;8395431;28;19935;-74
2023/04/26 02:09:32;;;;;;;;;;;2.90;93.90;;;;;;8384518;28;20322;-74
2023/04/26 02:13:34;;;;;;;;;;;2.80;94.00;;;;;;8401841;28;20406;-74
2023/04/26 02:17:36;;;;;;;;;;;2.80;94.20;;;;;;8409184;28;19935;-74
2023/04/26 02:21:54;;;;;;;;;;;2.70;94.10;;;;;;8394203;28;20011;-74
2023/04/26 02:25:56;;;;;;;;;;;2.70;94.40;;;;;;8404729;28;20280;-74
2023/04/26 02:29:58;;;;;;;;;;;2.70;94.10;;;;;;8402007;28;19932;-74
2023/04/26 02:34:00;;;;;;;;;;;2.60;94.10;;;;;;8392001;28;19939;-73
2023/04/26 02:38:02;;;;;;;;;;;2.60;94.00;;;;;;8389661;28;19960;-74
2023/04/26 02:42:07;;;;;;;;;;;2.50;94.00;;;;;;8396114;28;19931;-74
2023/04/26 02:46:09;;;;;;;;;;;2.50;93.90;;;;;;8398811;28;20548;-74
2023/04/26 02:50:11;;;;;;;;;;;2.50;94.10;;;;;;8399525;28;19932;-73
2023/04/26 02:54:16;;;;;;;;;;;2.50;94.00;;;;;;8402123;28;19928;-74
2023/04/26 02:58:17;;;;;;;;;;;2.40;93.80;;;;;;8390981;28;20669;-73
2023/04/26 03:02:20;;;;;;;;;;;2.40;94.00;;;;;;8398309;28;19929;-73
2023/04/26 03:06:22;;;;;;;;;;;2.30;94.00;;;;;;8389413;28;19971;-74
2023/04/26 03:10:23;;;;;;;;;;;2.30;94.00;;;;;;8394906;28;20008;-74
2023/04/26 03:14:25;;;;;;;;;;;2.30;94.10;;;;;;8384562;28;19931;-73
2023/04/26 03:18:27;;;;;;;;;;;2.30;94.30;;;;;;8382482;28;19925;-74
2023/04/26 03:22:29;;;;;;;;;;;2.30;94.40;;;;;;8369840;28;19924;-73
2023/04/26 03:26:31;;;;;;;;;;;2.30;94.60;;;;;;8388984;28;19994;-74
2023/04/26 03:30:33;;;;;;;;;;;2.30;94.30;;;;;;8401256;28;19925;-74
2023/04/26 03:34:34;;;;;;;;;;;2.20;94.00;;;;;;8399092;28;19947;-74
2023/04/26 03:38:36;;;;;;;;;;;2.10;94.00;;;;;;8390881;28;19924;-73
2023/04/26 03:42:37;;;;;;;;;;;2.10;94.10;;;;;;8418106;28;19928;-74
2023/04/26 03:46:39;;;;;;;;;;;2.00;94.10;;;;;;8380973;28;19981;-74
2023/04/26 03:50:41;;;;;;;;;;;2.00;94.30;;;;;;8400659;28;19924;-73
2023/04/26 03:54:42;;;;;;;;;;;2.00;93.80;;;;;;8396025;28;20014;-74
2023/04/26 03:58:45;;;;;;;;;;;2.00;93.80;;;;;;8392799;28;19931;-73
2023/04/26 04:02:46;;;;;;;;;;;2.00;94.30;;;;;;8393714;28;20380;-74
2023/04/26 04:06:48;;;;;;;;;;;1.90;94.40;;;;;;8386416;28;19929;-74
2023/04/26 04:10:50;;;;;;;;;;;1.90;94.10;;;;;;8388890;28;19924;-74
2023/04/26 04:14:51;;;;;;;;;;;1.90;94.20;;;;;;8394952;28;19942;-73
2023/04/26 04:18:53;;;;;;;;;;;1.90;94.10;;;;;;8391985;28;19968;-73
2023/04/26 04:22:57;;;;;;;;;;;1.90;94.00;;;;;;8404086;28;19956;-74
2023/04/26 04:27:00;;;;;;;;;;;1.80;94.00;;;;;;8417540;28;19928;-74
2023/04/26 04:31:02;;;;;;;;;;;1.80;94.20;;;;;;8412549;28;19967;-74
2023/04/26 04:35:04;;;;;;;;;;;1.80;95.10;;;;;;8383565;28;19928;-73
2023/04/26 04:39:12;;;;;;;;;;;1.70;94.60;;;;;;8392140;28;20011;-73
2023/04/26 04:43:14;;;;;;;;;;;1.80;94.40;;;;;;8391342;28;19952;-74
2023/04/26 04:47:16;;;;;;;;;;;1.80;94.40;;;;;;8382270;28;20011;-73
2023/04/26 04:51:18;;;;;;;;;;;1.90;94.40;;;;;;8386125;28;19983;-73
2023/04/26 04:55:20;;;;;;;;;;;1.90;94.60;;;;;;8395685;28;19963;-73
2023/04/26 04:59:22;;;;;;;;;;;2.00;94.80;;;;;;8386540;28;20368;-73
2023/04/26 05:03:24;;;;;;;;;;;2.10;95.10;;;;;;8410809;28;19958;-73
2023/04/26 05:07:26;;;;;;;;;;;2.20;95.40;;;;;;8387237;28;20011;-74
2023/04/26 05:11:29;;;;;;;;;;;2.30;95.40;;;;;;8389300;28;19974;-74
2023/04/26 05:15:31;;;;;;;;;;;2.40;96.00;;;;;;8381767;28;19931;-72
2023/04/26 05:19:32;;;;;;;;;;;2.50;96.00;;;;;;8399869;28;19931;-73
2023/04/26 05:23:34;;;;;;;;;;;2.60;96.30;;;;;;8398305;28;19930;-74
2023/04/26 05:27:36;;;;;;;;;;;2.70;96.30;;;;;;8393348;28;19933;-73
2023/04/26 05:31:38;;;;;;;;;;;2.80;97.30;;;;;;8383674;28;19925;-74
2023/04/26 05:35:39;;;;;;;;;;;2.90;97.70;;;;;;8392104;28;19924;-74
2023/04/26 05:39:41;;;;;;;;;;;3.00;97.30;;;;;;8386280;28;20388;-74
2023/04/26 05:43:43;;;;;;;;;;;3.20;97.70;;;;;;8391530;28;19929;-74
2023/04/26 05:47:46;;;;;;;;;;;3.30;97.70;;;;;;8390503;28;19933;-73
2023/04/26 05:51:48;;;;;;;;;;;3.40;98.00;;;;;;8369246;28;20375;-74
2023/04/26 05:55:49;;;;;;;;;;;3.60;98.30;;;;;;8374489;28;20330;-74
2023/04/26 05:59:51;;;;;;;;;;;3.80;98.30;;;;;;8369811;28;20338;-74
2023/04/26 06:03:52;;;;;;;;;;;4.10;98.80;;;;;;8368654;28;19932;-75
2023/04/26 06:07:58;;;;;;;;;;;4.40;99.90;;;;;;8361446;28;19924;-74
2023/04/26 06:12:01;;;;;;;;;;;4.70;99.90;;;;;;8370964;28;19939;-74
2023/04/26 06:16:02;;;;;;;;;;;5.00;99.90;;;;;;8380073;28;19925;-74
2023/04/26 06:20:04;;;;;;;;;;;5.10;99.90;;;;;;8390038;28;20362;-74
2023/04/26 06:24:06;;;;;;;;;;;5.20;99.90;;;;;;8416450;28;19925;-74
2023/04/26 06:28:08;;;;;;;;;;;5.40;99.90;;;;;;8405426;28;20378;-74
2023/04/26 06:32:09;;;;;;;;;;;5.60;99.90;;;;;;8403907;28;20341;-75
2023/04/26 06:36:12;;;;;;;;;;;5.80;99.90;;;;;;8412163;28;19924;-74
2023/04/26 06:40:14;;;;;;;;;;;6.00;99.90;;;;;;8386220;28;20040;-74
2023/04/26 06:44:16;;;;;;;;;;;6.10;99.90;;;;;;8399981;28;19956;-74
2023/04/26 06:48:17;;;;;;;;;;;6.30;99.90;;;;;;8382175;28;19924;-74
2023/04/26 06:52:19;;;;;;;;;;;6.40;99.90;;;;;;8382122;28;19935;-74
2023/04/26 06:56:22;;;;;;;;;;;6.60;99.90;;;;;;8404144;28;20019;-74
2023/04/26 07:00:24;;;;;;;;;;;6.80;99.90;;;;;;8387145;28;20579;-74
2023/04/26 07:04:25;;;;;;;;;;;6.90;99.90;;;;;;8385803;28;19925;-74
2023/04/26 07:08:27;;;;;;;;;;;7.10;99.90;;;;;;8390708;28;19925;-74
2023/04/26 07:12:29;;;;;;;;;;;7.30;99.90;;;;;;8383156;28;20399;-75
2023/04/26 07:16:31;;;;;;;;;;;7.30;99.90;;;;;;8379648;28;19978;-74
2023/04/26 07:20:33;;;;;;;;;;;7.30;99.90;;;;;;8372767;28;20321;-74
2023/04/26 07:24:35;;;;;;;;;;;7.40;99.90;;;;;;8367805;28;19971;-75
2023/04/26 07:28:36;;;;;;;;;;;7.30;99.90;;;;;;8399186;28;19987;-73
2023/04/26 07:32:38;;;;;;;;;;;7.30;99.90;;;;;;8404935;28;21678;-74
2023/04/26 07:36:40;;;;;;;;;;;7.40;99.90;;;;;;8410995;28;20758;-75
2023/04/26 07:40:42;;;;;;;;;;;7.50;99.90;;;;;;8407556;28;19931;-74
2023/04/26 07:44:43;;;;;;;;;;;7.60;99.90;;;;;;8382615;28;19962;-74
2023/04/26 07:48:45;;;;;;;;;;;7.70;99.90;;;;;;8362902;28;20053;-74
2023/04/26 07:52:46;;;;;;;;;;;7.70;99.90;;;;;;8389070;28;19932;-73
2023/04/26 07:56:48;;;;;;;;;;;7.80;99.90;;;;;;8387531;28;19924;-73
2023/04/26 08:00:50;;;;;;;;;;;7.90;99.90;;;;;;8381795;28;20040;-74
2023/04/26 08:04:53;;;;;;;;;;;8.10;99.90;;;;;;8367497;28;19932;-74
2023/04/26 08:08:55;;;;;;;;;;;8.40;99.90;;;;;;8401663;28;19968;-74
2023/04/26 08:13:01;;;;;;;;;;;8.70;99.90;;;;;;8374636;28;19928;-74
2023/04/26 08:17:03;;;;;;;;;;;8.90;99.90;;;;;;8394117;28;19946;-74
2023/04/26 08:21:05;;;;;;;;;;;9.00;99.90;;;;;;8401496;28;19932;-74
2023/04/26 08:25:07;;;;;;;;;;;9.00;99.90;;;;;;8397620;28;20280;-74
2023/04/26 08:29:09;;;;;;;;;;;9.10;99.90;;;;;;8375693;28;20371;-74
2023/04/26 08:33:10;;;;;;;;;;;9.10;99.90;;;;;;8391534;28;20007;-74
2023/04/26 08:37:12;;;;;;;;;;;9.20;99.90;;;;;;8379772;28;19932;-74
2023/04/26 08:41:14;;;;;;;;;;;9.30;99.90;;;;;;8389981;28;20315;-74
2023/04/26 08:45:16;;;;;;;;;;;9.40;99.90;;;;;;8398228;28;19932;-74
2023/04/26 08:49:33;;;;;;;;;;;9.40;99.90;;;;;;8384566;28;19931;-74
2023/04/26 08:53:34;;;;;;;;;;;9.40;99.90;;;;;;8396924;28;19976;-74
2023/04/26 08:57:36;;;;;;;;;;;9.40;99.90;;;;;;8378077;28;19925;-74
2023/04/26 09:01:39;;;;;;;;;;;9.20;99.90;;;;;;8380490;28;19990;-74
2023/04/26 09:05:44;;;;;;;;;;;9.10;99.90;;;;;;8378439;28;19936;-74
2023/04/26 09:09:50;;;;;;;;;;;9.00;99.90;;;;;;8391937;28;19932;-74
2023/04/26 09:13:51;;;;;;;;;;;8.90;99.90;;;;;;8392986;28;19924;-74
2023/04/26 09:17:53;;;;;;;;;;;8.80;99.90;;;;;;8386613;28;19924;-74
2023/04/26 09:21:55;;;;;;;;;;;8.80;99.90;;;;;;8370738;28;19924;-74
2023/04/26 09:26:13;;;;;;;;;;;8.70;99.90;;;;;;8379607;28;20390;-74
2023/04/26 09:30:17;;;;;;;;;;;8.60;99.90;;;;;;8376663;28;19955;-73
2023/04/26 09:34:18;;;;;;;;;;;8.60;99.90;;;;;;8373648;28;19924;-74
2023/04/26 09:38:20;;;;;;;;;;;8.60;99.90;;;;;;8390804;28;20004;-74
2023/04/26 09:42:22;;;;;;;;;;;8.60;99.90;;;;;;8384305;28;20399;-73
2023/04/26 09:46:24;;;;;;;;;;;8.60;99.90;;;;;;8376912;28;20036;-74
2023/04/26 09:50:26;;;;;;;;;;;8.70;99.90;;;;;;8381236;28;19935;-74
2023/04/26 09:54:38;;;;;;;;;;;8.80;99.90;;;;;;8370299;28;20357;-74
2023/04/26 09:59:04;;;;;;;;;;;8.90;99.90;;;;;;8348253;28;19932;-74
2023/04/26 10:03:06;;;;;;;;;;;9.10;99.90;;;;;;8366177;28;19924;-74
2023/04/26 10:07:08;;;;;;;;;;;9.40;99.90;;;;;;8389913;28;19925;-74
2023/04/26 10:11:11;;;;;;;;;;;9.60;99.90;;;;;;8386518;28;20032;-74
2023/04/26 10:15:13;;;;;;;;;;;10.00;99.90;;;;;;8382598;28;19933;-74
2023/04/26 10:19:15;;;;;;;;;;;10.40;99.90;;;;;;8383718;28;20086;-74
2023/04/26 10:23:21;;;;;;;;;;;10.90;99.90;;;;;;8390704;28;19924;-75
2023/04/26 10:27:41;;;;;;;;;;;11.20;99.90;;;;;;8385189;28;20376;-74
2023/04/26 10:32:01;;;;;;;;;;;11.30;99.90;;;;;;8379700;28;19931;-74
2023/04/26 10:36:04;;;;;;;;;;;11.00;99.90;;;;;;8390644;28;19987;-74
2023/04/26 10:40:21;;;;;;;;;;;10.60;99.90;;;;;;8376160;28;20438;-74
2023/04/26 10:44:32;;;;;;;;;;;10.40;99.90;;;;;;8369619;28;20016;-74
2023/04/26 10:48:35;;;;;;;;;;;10.20;99.90;;;;;;8393576;28;19932;-73
2023/04/26 10:52:55;;;;;;;;;;;10.00;99.90;;;;;;8392290;28;19936;-74
2023/04/26 10:56:57;;;;;;;;;;;9.90;99.90;;;;;;8397205;28;19924;-74
2023/04/26 11:01:07;;;;;;;;;;;9.70;99.90;;;;;;8389781;28;20247;-74
2023/04/26 11:05:08;;;;;;;;;;;9.70;99.90;;;;;;8380170;28;20350;-74
2023/04/26 11:09:30;;;;;;;;;;;9.60;99.90;;;;;;8381581;28;20024;-73
2023/04/26 11:13:34;;;;;;;;;;;9.50;99.90;;;;;;8386499;28;19931;-73
2023/04/26 11:17:36;;;;;;;;;;;9.50;99.90;;;;;;8378632;28;19932;-74
2023/04/26 11:21:39;;;;;;;;;;;9.50;99.90;;;;;;8363721;28;19978;-74
2023/04/26 11:25:40;;;;;;;;;;;9.50;99.90;;;;;;8397567;28;19932;-74
2023/04/26 11:29:42;;;;;;;;;;;9.60;99.90;;;;;;8389733;28;19932;-75
2023/04/26 11:33:44;;;;;;;;;;;9.70;99.90;;;;;;8395089;28;19932;-74
2023/04/26 11:37:50;;;;;;;;;;;9.90;99.90;;;;;;8402968;28;19925;-74
2023/04/26 11:41:55;;;;;;;;;;;10.00;99.90;;;;;;8374650;28;20016;-74
2023/04/26 11:45:57;;;;;;;;;;;10.20;99.90;;;;;;8355292;28;19939;-75
2023/04/26 11:50:00;;;;;;;;;;;10.30;99.90;;;;;;8390653;28;20015;-74
2023/04/26 11:54:02;;;;;;;;;;;10.50;99.90;;;;;;8375402;28;19960;-74
2023/04/26 11:58:11;;;;;;;;;;;10.60;99.90;;;;;;8369127;28;19947;-75
2023/04/26 12:02:13;;;;;;;;;;;10.70;99.90;;;;;;8366166;28;19924;-74
2023/04/26 12:06:14;;;;;;;;;;;10.80;99.90;;;;;;8363191;28;19929;-74
2023/04/26 12:10:17;;;;;;;;;;;11.00;99.90;;;;;;8358621;28;19925;-74
2023/04/26 12:14:19;;;;;;;;;;;11.20;99.90;;;;;;8366659;28;19929;-74
2023/04/26 12:18:22;;;;;;;;;;;11.60;99.90;;;;;;8359355;28;19929;-75
2023/04/26 12:22:24;;;;;;;;;;;12.10;99.90;;;;;;8361814;28;19932;-74
2023/04/26 12:26:44;;;;;;;;;;;12.80;99.90;;;;;;8362647;28;20418;-74
2023/04/26 12:30:45;;;;;;;;;;;13.50;99.90;;;;;;8359750;28;19931;-74
2023/04/26 12:34:47;;;;;;;;;;;13.90;99.90;;;;;;8361024;28;19979;-75
2023/04/26 12:38:49;;;;;;;;;;;14.00;99.90;;;;;;8365367;28;19974;-74
2023/04/26 12:42:51;;;;;;;;;;;14.00;99.90;;;;;;8362753;28;19939;-74
2023/04/26 12:46:52;;;;;;;;;;;14.10;99.90;;;;;;8351776;28;19967;-74
2023/04/26 12:50:54;;;;;;;;;;;14.10;99.90;;;;;;8366128;28;19980;-74
2023/04/26 12:54:56;;;;;;;;;;;14.10;99.90;;;;;;8380658;28;20021;-74
2023/04/26 12:58:58;;;;;;;;;;;14.00;99.90;;;;;;8362826;28;20016;-75
2023/04/26 13:03:00;;;;;;;;;;;13.70;99.90;;;;;;8345328;28;19972;-74
2023/04/26 13:32:20;;;;;;;;;;;13.60;99.90;;;;;;8367224;28;20288;-74
2023/04/26 13:36:22;;;;;;;;;;;13.50;99.20;;;;;;8369952;28;20346;-75
2023/04/26 13:40:24;;;;;;;;;;;13.50;98.10;;;;;;8375528;28;19932;-74
2023/04/26 13:44:25;;;;;;;;;;;13.50;99.90;;;;;;8371430;28;20273;-74
2023/04/26 13:48:27;;;;;;;;;;;13.70;99.90;;;;;;8374949;28;20475;-74
2023/04/26 13:52:29;;;;;;;;;;;13.70;99.90;;;;;;8370401;28;20023;-74
2023/04/26 13:56:32;;;;;;;;;;;13.60;99.90;;;;;;8355839;28;19928;-74
2023/04/26 14:00:34;;;;;;;;;;;13.50;99.60;;;;;;8374153;28;20373;-74
2023/04/26 14:04:35;;;;;;;;;;;13.30;99.90;;;;;;8376101;28;20383;-75
2023/04/26 14:08:37;;;;;;;;;;;13.10;98.90;;;;;;8369973;28;20463;-74
2023/04/26 14:12:39;;;;;;;;;;;12.90;99.60;;;;;;8369903;28;19967;-74
2023/04/26 14:16:40;;;;;;;;;;;12.70;98.70;;;;;;8391996;28;19971;-74
2023/04/26 14:20:44;;;;;;;;;;;12.60;99.00;;;;;;8382666;28;20409;-75
2023/04/26 14:24:46;;;;;;;;;;;12.50;98.80;;;;;;8374530;28;19924;-74
2023/04/26 14:28:47;;;;;;;;;;;12.50;99.70;;;;;;8373323;28;19924;-74
2023/04/26 14:32:49;;;;;;;;;;;12.40;99.30;;;;;;8370622;28;19926;-74
2023/04/26 14:36:51;;;;;;;;;;;12.40;99.90;;;;;;8374180;28;21009;-74
2023/04/26 14:40:52;;;;;;;;;;;12.40;99.90;;;;;;8366830;28;20467;-75
2023/04/26 14:44:57;;;;;;;;;;;12.40;99.90;;;;;;8366511;28;20015;-74
2023/04/26 14:48:58;;;;;;;;;;;12.50;99.90;;;;;;8368400;28;20011;-74
2023/04/26 14:53:00;;;;;;;;;;;12.60;99.90;;;;;;8366726;28;19932;-75
2023/04/26 15:07:22;;;;;;;;;;;12.80;99.90;;;;;;8358966;28;20006;-74
2023/04/26 15:11:32;;;;;;;;;;;12.80;99.90;;;;;;8364523;28;19939;-75
2023/04/26 15:15:34;;;;;;;;;;;12.90;99.90;;;;;;8343904;28;19933;-74
2023/04/26 15:19:35;;;;;;;;;;;13.00;99.90;;;;;;8360774;28;19939;-74
2023/04/26 15:23:37;;;;;;;;;;;13.10;99.90;;;;;;8379539;28;22086;-74
2023/04/26 15:27:39;;;;;;;;;;;13.10;99.90;;;;;;8366116;28;20296;-74
2023/04/26 15:31:40;;;;;;;;;;;13.00;99.90;;;;;;8370633;28;19971;-75
2023/04/26 15:35:42;;;;;;;;;;;12.90;99.90;;;;;;8366620;28;19943;-74
2023/04/26 15:39:44;;;;;;;;;;;12.80;99.90;;;;;;8368995;28;20056;-75
2023/04/26 15:43:45;;;;;;;;;;;12.70;99.90;;;;;;8365575;28;19925;-74
2023/04/26 15:47:47;;;;;;;;;;;12.60;99.90;;;;;;8366551;28;20369;-74
2023/04/26 15:51:48;;;;;;;;;;;12.40;99.90;;;;;;8369584;28;19971;-74
2023/04/26 15:55:50;;;;;;;;;;;12.30;99.90;;;;;;8373030;28;19939;-74
2023/04/26 15:59:51;;;;;;;;;;;12.30;99.90;;;;;;8364981;28;19936;-74
2023/04/26 16:08:57;;;;;;;;;;;12.30;99.90;;;;;;8360534;28;19994;-75
2023/04/26 16:12:58;;;;;;;;;;;12.20;99.90;;;;;;8374047;28;20016;-74
2023/04/26 16:17:22;;;;;;;;;;;12.20;99.90;;;;;;8364499;28;20024;-75
2023/04/26 16:21:25;;;;;;;;;;;12.20;99.90;;;;;;8368706;28;19938;-74
2023/04/26 16:25:27;;;;;;;;;;;12.30;99.90;;;;;;8366592;28;19960;-75
2023/04/26 16:29:28;;;;;;;;;;;12.40;99.90;;;;;;8370010;28;20386;-75
2023/04/26 16:33:30;;;;;;;;;;;12.50;99.90;;;;;;8367848;28;20459;-75
2023/04/26 16:37:32;;;;;;;;;;;12.50;99.90;;;;;;8362837;28;19956;-74
2023/04/26 16:41:33;;;;;;;;;;;12.50;99.90;;;;;;8369837;28;19925;-74
2023/04/26 16:45:35;;;;;;;;;;;12.50;99.90;;;;;;8368502;28;19937;-74
2023/04/26 16:49:37;;;;;;;;;;;12.40;99.90;;;;;;8366416;28;20280;-74
2023/04/26 16:53:39;;;;;;;;;;;12.40;99.90;;;;;;8369305;28;19929;-75
2023/04/26 16:57:41;;;;;;;;;;;12.40;99.90;;;;;;8369684;28;19924;-74
2023/04/26 17:01:42;;;;;;;;;;;12.30;99.90;;;;;;8388969;28;19936;-74
2023/04/26 17:05:48;;;;;;;;;;;12.20;99.90;;;;;;8365093;28;19986;-74
2023/04/26 17:09:53;;;;;;;;;;;12.10;99.90;;;;;;8365244;28;19964;-74
2023/04/26 17:13:56;;;;;;;;;;;12.00;99.90;;;;;;8363204;28;19939;-74
2023/04/26 17:17:57;;;;;;;;;;;11.90;99.90;;;;;;8357385;28;20019;-74
2023/04/26 17:21:59;;;;;;;;;;;11.90;99.90;;;;;;8360076;28;19928;-74
2023/04/26 17:26:01;;;;;;;;;;;11.90;99.90;;;;;;8361868;28;20407;-75
2023/04/26 17:30:03;;;;;;;;;;;11.90;99.90;;;;;;8366639;28;19998;-74
2023/04/26 17:34:04;;;;;;;;;;;11.80;99.90;;;;;;8365673;28;19925;-75
2023/04/26 17:38:06;;;;;;;;;;;11.70;99.90;;;;;;8361165;28;19947;-74
2023/04/26 17:42:08;;;;;;;;;;;11.60;99.90;;;;;;8358392;28;19963;-75
2023/04/26 17:46:09;;;;;;;;;;;11.60;99.90;;;;;;8359916;28;20007;-74
2023/04/26 17:50:11;;;;;;;;;;;11.50;99.90;;;;;;8361360;28;19971;-74
2023/04/26 17:54:13;;;;;;;;;;;11.50;99.90;;;;;;8360906;28;20019;-74
2023/04/26 17:58:14;;;;;;;;;;;11.40;99.90;;;;;;8360887;28;19986;-75
2023/04/26 18:02:16;;;;;;;;;;;11.40;99.90;;;;;;8378596;28;19936;-75
2023/04/26 18:06:18;;;;;;;;;;;11.30;99.90;;;;;;8365284;28;19963;-73
2023/04/26 18:10:20;;;;;;;;;;;11.20;99.90;;;;;;8369707;28;19960;-74
2023/04/26 18:14:23;;;;;;;;;;;11.20;99.90;;;;;;8373720;28;19924;-74
2023/04/26 18:18:25;;;;;;;;;;;11.10;99.90;;;;;;8388679;28;19928;-74
2023/04/26 18:22:28;;;;;;;;;;;11.00;99.90;;;;;;8369859;28;19925;-74
2023/04/26 18:26:29;;;;;;;;;;;10.90;99.90;;;;;;8370010;28;19931;-74
2023/04/26 18:30:31;;;;;;;;;;;10.80;99.90;;;;;;8376688;28;19932;-74
2023/04/26 18:34:33;;;;;;;;;;;10.60;99.70;;;;;;8375839;28;20035;-74
2023/04/26 18:38:34;;;;;;;;;;;10.60;99.80;;;;;;8359463;28;20133;-75
2023/04/26 18:42:37;;;;;;;;;;;10.50;99.80;;;;;;8367810;28;19936;-74
2023/04/26 18:46:40;;;;;;;;;;;10.40;99.80;;;;;;8369868;28;19928;-75
2023/04/26 18:50:48;;;;;;;;;;;10.30;99.70;;;;;;8364106;28;21661;-74
2023/04/26 18:54:49;;;;;;;;;;;10.30;99.70;;;;;;8377918;28;19939;-74
2023/04/26 18:58:51;;;;;;;;;;;10.20;99.60;;;;;;8376118;28;19931;-74
2023/04/26 19:02:53;;;;;;;;;;;10.10;99.60;;;;;;8376391;28;20405;-74
2023/04/26 19:06:55;;;;;;;;;;;10.10;99.60;;;;;;8362340;28;19947;-74
2023/04/26 19:10:57;;;;;;;;;;;10.00;99.60;;;;;;8361152;28;19924;-74
2023/04/26 19:14:59;;;;;;;;;;;10.00;99.60;;;;;;8374855;28;19931;-75
2023/04/26 19:19:02;;;;;;;;;;;9.90;99.90;;;;;;8369211;28;20178;-75
2023/04/26 19:23:03;;;;;;;;;;;9.90;99.90;;;;;;8367253;28;20019;-74
2023/04/26 19:27:05;;;;;;;;;;;9.80;99.90;;;;;;8362414;28;19928;-74
2023/04/26 19:31:06;;;;;;;;;;;9.80;99.90;;;;;;8367046;28;19967;-74
2023/04/26 19:35:08;;;;;;;;;;;9.70;99.90;;;;;;8369760;28;19931;-74
2023/04/26 19:39:10;;;;;;;;;;;9.70;99.90;;;;;;8365991;28;19964;-74
2023/04/26 19:43:12;;;;;;;;;;;9.60;99.90;;;;;;8365831;28;19931;-74
2023/04/26 19:47:13;;;;;;;;;;;9.50;99.90;;;;;;8361842;28;19962;-74
2023/04/26 19:51:16;;;;;;;;;;;9.50;99.90;;;;;;8369856;28;20292;-74
2023/04/26 19:55:18;;;;;;;;;;;9.50;99.90;;;;;;8358286;28;20387;-74
2023/04/26 19:59:20;;;;;;;;;;;9.40;99.90;;;;;;8361602;28;20016;-74
2023/04/26 20:03:21;;;;;;;;;;;9.30;99.90;;;;;;8367288;28;20522;-74
2023/04/26 20:07:23;;;;;;;;;;;9.30;99.90;;;;;;8365493;28;19987;-74
2023/04/26 20:11:25;;;;;;;;;;;9.20;99.90;;;;;;8368303;28;19929;-73
2023/04/26 20:15:27;;;;;;;;;;;9.10;99.90;;;;;;8364633;28;19929;-74
2023/04/26 20:19:28;;;;;;;;;;;8.90;99.90;;;;;;8363364;28;20007;-74
2023/04/26 20:23:31;;;;;;;;;;;8.80;99.90;;;;;;8385330;28;19928;-74
2023/04/26 20:27:32;;;;;;;;;;;8.60;99.80;;;;;;8363817;28;19925;-74
2023/04/26 20:31:34;;;;;;;;;;;8.40;99.50;;;;;;8360313;28;20023;-74
2023/04/26 20:35:36;;;;;;;;;;;8.20;99.50;;;;;;8353171;28;20269;-74
2023/04/26 20:39:37;;;;;;;;;;;8.10;99.30;;;;;;8381897;28;20368;-74
2023/04/26 20:43:39;;;;;;;;;;;8.00;99.30;;;;;;8350127;28;19932;-74
2023/04/26 20:47:41;;;;;;;;;;;7.80;99.20;;;;;;8356295;28;19967;-74
2023/04/26 20:51:42;;;;;;;;;;;7.70;99.00;;;;;;8378807;28;20046;-74
2023/04/26 20:55:44;;;;;;;;;;;7.60;98.80;;;;;;8357770;28;20380;-74
2023/04/26 20:59:46;;;;;;;;;;;7.40;98.90;;;;;;8381890;28;19980;-74
2023/04/26 21:03:47;;;;;;;;;;;7.30;98.80;;;;;;8382419;28;19924;-74
2023/04/26 21:07:49;;;;;;;;;;;7.20;99.00;;;;;;8378676;28;19969;-74
2023/04/26 21:11:51;;;;;;;;;;;7.00;98.90;;;;;;8386840;28;19932;-74
2023/04/26 21:15:52;;;;;;;;;;;6.90;99.00;;;;;;8396992;28;20022;-74
2023/04/26 21:19:54;;;;;;;;;;;6.80;98.70;;;;;;8392620;28;19933;-74
2023/04/26 21:23:56;;;;;;;;;;;6.70;98.70;;;;;;8403104;28;19925;-74
2023/04/26 21:27:57;;;;;;;;;;;6.70;98.70;;;;;;8376493;28;19925;-74
2023/04/26 21:31:59;;;;;;;;;;;6.60;98.60;;;;;;8388154;28;19967;-73
2023/04/26 21:36:01;;;;;;;;;;;6.50;98.80;;;;;;8382164;28;20375;-74
2023/04/26 21:40:03;;;;;;;;;;;6.40;98.80;;;;;;8375607;28;20007;-74
2023/04/26 21:44:05;;;;;;;;;;;6.30;98.60;;;;;;8397415;28;19936;-74
2023/04/26 21:48:07;;;;;;;;;;;6.20;98.40;;;;;;8390422;28;19924;-74
2023/04/26 21:52:08;;;;;;;;;;;6.20;98.40;;;;;;8397624;28;19979;-74
2023/04/26 21:56:10;;;;;;;;;;;6.10;98.50;;;;;;8391783;28;20618;-74
2023/04/26 22:00:12;;;;;;;;;;;6.00;98.50;;;;;;8398990;28;20015;-74
2023/04/26 22:04:13;;;;;;;;;;;5.90;98.60;;;;;;8390407;28;19924;-74
2023/04/26 22:08:15;;;;;;;;;;;5.90;98.70;;;;;;8392121;28;20356;-74
2023/04/26 22:12:17;;;;;;;;;;;5.80;98.40;;;;;;8389159;28;19939;-74
2023/04/26 22:16:18;;;;;;;;;;;5.70;98.40;;;;;;8382465;28;19932;-74
2023/04/26 22:20:20;;;;;;;;;;;5.60;98.40;;;;;;8390005;28;19924;-74
2023/04/26 22:24:22;;;;;;;;;;;5.60;98.20;;;;;;8399388;28;19929;-74
2023/04/26 22:28:23;;;;;;;;;;;5.50;98.40;;;;;;8405806;28;19963;-73
2023/04/26 22:32:26;;;;;;;;;;;5.40;98.20;;;;;;8396164;28;19931;-74
2023/04/26 22:36:28;;;;;;;;;;;5.30;98.10;;;;;;8385179;28;20326;-73
2023/04/26 22:40:30;;;;;;;;;;;5.30;98.30;;;;;;8397847;28;19924;-73
2023/04/26 22:44:32;;;;;;;;;;;5.20;98.00;;;;;;8398421;28;19924;-73
2023/04/26 22:48:34;;;;;;;;;;;5.20;97.90;;;;;;8392750;28;20331;-74
2023/04/26 22:52:37;;;;;;;;;;;5.10;98.10;;;;;;8381020;28;19935;-73
2023/04/26 22:56:38;;;;;;;;;;;5.00;97.80;;;;;;8390400;28;19925;-74
2023/04/26 23:00:40;;;;;;;;;;;4.90;98.10;;;;;;8388898;28;20372;-74
2023/04/26 23:04:41;;;;;;;;;;;4.80;97.80;;;;;;8384471;28;19935;-74
2023/04/26 23:08:43;;;;;;;;;;;4.80;97.70;;;;;;8399033;28;19928;-74
2023/04/26 23:12:45;;;;;;;;;;;4.70;97.80;;;;;;8396104;28;20322;-74
2023/04/26 23:16:46;;;;;;;;;;;4.70;97.80;;;;;;8390206;28;19931;-74
2023/04/26 23:20:48;;;;;;;;;;;4.60;97.80;;;;;;8392899;28;20403;-73
2023/04/26 23:24:50;;;;;;;;;;;4.50;97.80;;;;;;8392706;28;19962;-74
2023/04/26 23:28:52;;;;;;;;;;;4.40;97.90;;;;;;8388137;28;20008;-74
2023/04/26 23:32:53;;;;;;;;;;;4.30;97.70;;;;;;8394394;28;19930;-73
2023/04/26 23:36:55;;;;;;;;;;;4.30;97.70;;;;;;8398355;28;19928;-73
2023/04/26 23:40:56;;;;;;;;;;;4.20;97.60;;;;;;8397016;28;19983;-74
2023/04/26 23:44:58;;;;;;;;;;;4.20;97.70;;;;;;8402166;28;19924;-73
2023/04/26 23:49:00;;;;;;;;;;;4.10;97.50;;;;;;8375156;28;19924;-74
2023/04/26 23:53:01;;;;;;;;;;;4.00;97.40;;;;;;8395730;28;19925;-74
2023/04/26 23:57:03;;;;;;;;;;;3.90;97.40;;;;;;8385028;28;19928;-74
